SBGR/GRU METAR and TAF weather

Enter ICAO airport designator
Station Type Date Time Source
SBGR METAR 2020/08/05 16:00 UTC NOAA

SBGR 051600Z 08006KT CAVOK 21/11 Q1028


Station Type Date Time Source
SBGR Decoded METAR 2020/08/05 16:00 UTC NOAA

Guarulhos Civ / Mil , Brazil (SBGR) 23-26S 046-28W
Aug 05, 2020 - 12:00 PM EDT / 2020.08.05 1600 UTC
Wind: from the E (080 degrees) at 7 MPH (6 KT):0
Visibility: greater than 7 mile(s):0
Temperature: 69 F (21 C)
Dew Point: 51 F (11 C)
Relative Humidity: 52%
Pressure (altimeter): 30.36 in. Hg (1028 hPa)
ob: SBGR 051600Z 08006KT CAVOK 21/11 Q1028
cycle: 16

Station Type Date Time Source
SBGR TAF 2020/08/05 18:21 UTC NOAA

TAF SBGR 051600Z 0518/0624 08006KT CAVOK TX23/0518Z TN11/0609Z
BECMG 0518/0520 13007KT
BECMG 0521/0523 FEW010
BECMG 0600/0602 08004KT 8000 NSC
BECMG 0605/0607 04010KT 4000 BR BKN007 PROB30 0608/0611 0300 FG OVC002
BECMG 0611/0613 12005KT CAVOK
BECMG 0620/0622 14007KT FEW020
RMK PHH

Example: see airport list